createdAt,value
2019-05-06T00:03:25.069Z,2.90
2019-05-06T00:08:26.857Z,2.93
2019-05-06T00:13:28.553Z,3.13
2019-05-06T00:18:30.302Z,2.97
2019-05-06T00:23:38.247Z,2.50
2019-05-06T00:29:01.514Z,3.10
2019-05-06T00:34:04.394Z,3.00
2019-05-06T00:39:24.232Z,3.20
2019-05-06T00:44:26.013Z,3.37
2019-05-06T00:49:27.762Z,3.20
2019-05-06T00:54:29.877Z,2.90
2019-05-06T00:59:31.623Z,3.40
2019-05-06T01:04:33.906Z,3.50
2019-05-06T01:09:35.886Z,2.87
2019-05-06T01:14:43.533Z,3.47
2019-05-06T01:19:45.829Z,2.87
2019-05-06T01:24:47.630Z,3.00
2019-05-06T01:29:49.354Z,2.50
2019-05-06T01:34:51.120Z,2.63
2019-05-06T01:40:11.082Z,3.13
2019-05-06T01:45:14.153Z,2.93
2019-05-06T01:50:16.004Z,2.53
2019-05-06T01:55:17.796Z,2.20
2019-05-06T02:00:19.593Z,2.70
2019-05-06T02:05:21.306Z,2.70
2019-05-06T02:10:23.863Z,2.43
2019-05-06T02:15:25.714Z,2.20
2019-05-06T02:20:27.490Z,2.40
2019-05-06T02:25:48.766Z,2.57
2019-05-06T02:31:19.056Z,2.90
2019-05-06T02:36:38.218Z,2.70
2019-05-06T02:41:42.796Z,2.43
2019-05-06T02:46:46.143Z,3.13
2019-05-06T02:51:47.847Z,2.73
2019-05-06T02:56:49.575Z,2.90
2019-05-06T03:01:53.808Z,3.30
2019-05-06T03:06:54.850Z,3.17
2019-05-06T03:11:56.558Z,3.27
2019-05-06T03:16:58.307Z,2.97
2019-05-06T03:22:34.518Z,3.27
2019-05-06T03:27:35.242Z,3.40
2019-05-06T03:32:48.223Z,3.50
2019-05-06T03:37:43.789Z,3.40
2019-05-06T03:42:44.631Z,3.17
2019-05-06T03:47:58.182Z,3.30
2019-05-06T03:53:03.313Z,5.27
2019-05-06T03:58:04.841Z,3.90
2019-05-06T04:03:06.617Z,3.50
2019-05-06T04:08:12.747Z,3.53
2019-05-06T04:13:13.955Z,3.47
2019-05-06T04:18:16.054Z,3.30
2019-05-06T04:23:33.174Z,3.67
2019-05-06T04:28:35.646Z,3.43
2019-05-06T04:33:37.345Z,3.30
2019-05-06T04:38:43.342Z,3.27
2019-05-06T04:43:44.314Z,3.27
2019-05-06T04:48:46.049Z,2.80
2019-05-06T04:53:47.844Z,3.20
2019-05-06T04:58:49.631Z,3.00
2019-05-06T05:03:53.963Z,3.30
2019-05-06T05:08:55.086Z,2.73
2019-05-06T05:14:28.381Z,2.93
2019-05-06T05:19:32.565Z,2.93
2019-05-06T05:24:34.736Z,3.10
2019-05-06T05:29:36.524Z,3.03
2019-05-06T05:34:40.740Z,4.00
2019-05-06T05:39:42.573Z,3.40
2019-05-06T05:44:44.744Z,3.37
2019-05-06T05:50:22.852Z,3.27
2019-05-06T05:55:24.798Z,3.50
2019-05-06T06:00:28.414Z,2.83
2019-05-06T06:05:30.125Z,3.10
2019-05-06T06:10:46.489Z,3.30
2019-05-06T06:16:05.981Z,2.87
2019-05-06T06:21:28.173Z,2.80
2019-05-06T06:26:29.450Z,2.07
2019-05-06T06:31:45.617Z,2.33
2019-05-06T06:37:05.400Z,2.10
2019-05-06T06:42:07.085Z,2.40
2019-05-06T06:47:08.817Z,2.17
2019-05-06T06:52:12.451Z,2.00
2019-05-06T06:57:31.379Z,2.40
2019-05-06T07:02:37.774Z,2.20
2019-05-06T07:07:46.619Z,2.37
2019-05-06T07:12:43.069Z,2.40
2019-05-06T07:17:44.872Z,1.90
2019-05-06T07:22:46.572Z,2.23
2019-05-06T07:27:48.271Z,2.00
2019-05-06T07:32:50.008Z,2.10
2019-05-06T07:37:53.034Z,2.10
2019-05-06T07:42:56.798Z,1.73
2019-05-06T07:48:12.706Z,1.40
2019-05-06T07:53:14.016Z,1.43
2019-05-06T07:58:15.696Z,1.70
2019-05-06T08:03:17.384Z,1.77
2019-05-06T08:08:19.076Z,1.80
2019-05-06T08:13:22.606Z,2.10
2019-05-06T08:18:24.278Z,2.30
2019-05-06T08:23:37.418Z,2.00
2019-05-06T08:28:41.608Z,1.70
2019-05-06T08:33:43.184Z,1.77
2019-05-06T08:38:58.222Z,1.60
2019-05-06T08:44:02.399Z,1.90
2019-05-06T08:49:03.518Z,1.57
2019-05-06T08:54:16.954Z,1.47
2019-05-06T08:59:18.684Z,1.57
2019-05-06T09:04:22.587Z,1.57
2019-05-06T09:09:23.946Z,1.47
2019-05-06T09:14:25.746Z,1.50
2019-05-06T09:19:27.529Z,1.70
2019-05-06T09:24:29.290Z,1.70
2019-05-06T09:29:37.071Z,1.80
2019-05-06T09:34:52.578Z,1.30
2019-05-06T09:39:53.796Z,1.57
2019-05-06T09:44:55.557Z,1.33
2019-05-06T09:49:57.329Z,1.13
2019-05-06T09:55:09.329Z,1.40
2019-05-06T10:00:12.486Z,1.50
2019-05-06T10:05:14.434Z,1.20
2019-05-06T10:10:17.868Z,1.20
2019-05-06T10:15:20.133Z,1.40
2019-05-06T10:20:22.275Z,1.30
2019-05-06T10:25:24.203Z,1.00
2019-05-06T10:30:25.898Z,1.40
2019-05-06T10:35:29.680Z,1.73
2019-05-06T10:40:34.121Z,1.37
2019-05-06T10:45:35.917Z,1.40
2019-05-06T10:50:43.161Z,1.30
2019-05-06T10:55:49.261Z,1.00
2019-05-06T11:00:56.540Z,1.20
2019-05-06T11:05:58.281Z,1.13
2019-05-06T11:11:12.445Z,1.30
2019-05-06T11:16:03.597Z,1.10
2019-05-06T11:21:05.293Z,1.40
2019-05-06T11:26:07.028Z,1.17
2019-05-06T11:31:28.209Z,1.67
2019-05-06T11:36:55.295Z,1.30
2019-05-06T11:42:22.559Z,1.40
2019-05-06T11:47:03.365Z,1.20
2019-05-06T11:52:05.125Z,1.30
2019-05-06T11:57:08.741Z,1.40
2019-05-06T12:02:13.563Z,1.27
2019-05-06T12:07:16.171Z,1.27
2019-05-06T12:12:18.110Z,1.50
2019-05-06T12:17:22.126Z,1.10
2019-05-06T12:22:26.088Z,1.20
2019-05-06T12:27:45.931Z,1.50
2019-05-06T12:33:10.128Z,0.63
2019-05-06T12:38:26.470Z,1.40
2019-05-06T12:43:43.185Z,1.30
2019-05-06T12:48:45.133Z,1.20
2019-05-06T12:53:46.831Z,1.23
2019-05-06T12:58:48.542Z,1.23
2019-05-06T13:03:52.603Z,1.30
2019-05-06T13:09:04.778Z,1.40
2019-05-06T13:14:00.800Z,1.20
2019-05-06T13:19:03.788Z,1.30
2019-05-06T13:24:06.504Z,1.03
2019-05-06T13:29:17.873Z,1.10
2019-05-06T13:34:20.528Z,1.00
2019-05-06T13:39:23.964Z,1.10
2019-05-06T13:44:25.851Z,1.10
2019-05-06T13:49:49.452Z,0.73
2019-05-06T13:54:52.980Z,0.90
2019-05-06T13:59:54.710Z,0.90
2019-05-06T14:04:56.402Z,1.00
2019-05-06T14:09:58.101Z,0.80
2019-05-06T14:14:59.812Z,1.20
2019-05-06T14:20:02.641Z,1.10
2019-05-06T14:25:38.986Z,1.30
2019-05-06T14:30:59.486Z,1.23
2019-05-06T14:36:03.182Z,1.30
2019-05-06T14:41:13.143Z,0.80
2019-05-06T14:46:14.467Z,0.60
2019-05-06T14:51:16.167Z,1.17
2019-05-06T14:56:34.769Z,0.60
2019-05-06T15:01:38.021Z,0.73
2019-05-06T15:06:39.714Z,1.27
2019-05-06T15:11:43.460Z,1.60
2019-05-06T15:16:45.234Z,1.27
2019-05-06T15:21:46.935Z,1.23
2019-05-06T15:26:48.633Z,1.70
2019-05-06T15:32:13.114Z,1.10
2019-05-06T15:37:20.534Z,1.50
2019-05-06T15:42:22.509Z,1.43
2019-05-06T15:47:24.321Z,1.40
2019-05-06T15:52:26.856Z,1.50
2019-05-06T15:57:28.584Z,1.50
2019-05-06T16:02:30.284Z,1.23
2019-05-06T16:07:37.055Z,2.10
2019-05-06T16:12:35.523Z,1.30
2019-05-06T16:17:37.201Z,1.30
2019-05-06T16:22:38.910Z,1.50
2019-05-06T16:27:43.792Z,1.50
2019-05-06T16:32:44.345Z,1.53
2019-05-06T16:37:46.124Z,1.50
2019-05-06T16:42:47.826Z,1.80
2019-05-06T16:47:49.572Z,1.70
2019-05-06T16:52:52.635Z,1.90
2019-05-06T16:58:02.708Z,2.23
2019-05-06T17:03:23.884Z,2.00
2019-05-06T17:08:25.650Z,1.87
2019-05-06T17:13:27.342Z,1.93
2019-05-06T17:18:29.106Z,2.13
2019-05-06T17:23:32.391Z,2.27
2019-05-06T17:28:43.846Z,2.30
2019-05-06T17:33:45.904Z,1.97
2019-05-06T17:38:48.966Z,3.07
2019-05-06T17:43:52.132Z,1.97
2019-05-06T17:49:16.070Z,1.93
2019-05-06T17:54:17.818Z,2.00
2019-05-06T17:59:19.562Z,2.33
2019-05-06T18:04:22.752Z,2.50
2019-05-06T18:09:24.674Z,2.20
2019-05-06T18:14:26.366Z,2.20
2019-05-06T18:19:28.106Z,2.47
2019-05-06T18:24:32.960Z,3.57
2019-05-06T18:29:34.208Z,2.10
2019-05-06T18:34:35.927Z,2.33
2019-05-06T18:39:37.693Z,2.30
2019-05-06T18:44:39.433Z,2.30
2019-05-06T18:50:02.230Z,2.60
2019-05-06T18:55:01.854Z,2.43
2019-05-06T19:00:06.424Z,2.83
2019-05-06T19:05:27.005Z,3.27
2019-05-06T19:10:28.944Z,2.77
2019-05-06T19:15:32.761Z,2.87
2019-05-06T19:20:34.580Z,2.90
2019-05-06T19:25:44.659Z,2.83
2019-05-06T19:30:47.360Z,2.70
2019-05-06T19:35:49.089Z,2.60
2019-05-06T19:41:23.007Z,3.07
2019-05-06T19:46:25.929Z,3.73
2019-05-06T19:51:27.631Z,4.93
2019-05-06T19:56:29.337Z,4.07
2019-05-06T20:01:32.334Z,5.40
2019-05-06T20:06:42.840Z,6.03
2019-05-06T20:11:44.881Z,6.47
2019-05-06T20:16:46.586Z,7.30
2019-05-06T20:21:48.337Z,7.40
2019-05-06T20:26:50.121Z,7.83
2019-05-06T20:31:53.501Z,7.33
2019-05-06T20:36:55.431Z,6.40
2019-05-06T20:41:57.181Z,5.87
2019-05-06T20:46:58.965Z,6.67
2019-05-06T20:52:00.763Z,6.90
2019-05-06T20:57:02.662Z,5.70
2019-05-06T21:02:04.401Z,5.40
2019-05-06T21:07:06.205Z,4.27
2019-05-06T21:12:07.953Z,4.63
2019-05-06T21:17:12.106Z,4.60
2019-05-06T21:22:13.433Z,5.00
2019-05-06T21:27:15.137Z,4.43
2019-05-06T21:32:16.993Z,4.27
2019-05-06T21:37:18.825Z,5.10
2019-05-06T21:42:20.545Z,4.33
2019-05-06T21:47:22.238Z,4.83
2019-05-06T21:52:36.333Z,5.53
2019-05-06T21:57:27.519Z,5.40
2019-05-06T22:02:29.281Z,5.97
2019-05-06T22:07:33.244Z,5.57
2019-05-06T22:12:36.389Z,5.97
2019-05-06T22:17:38.203Z,5.60
2019-05-06T22:22:39.978Z,5.80
2019-05-06T22:27:44.530Z,5.97
2019-05-06T22:32:45.876Z,5.87
2019-05-06T22:37:49.490Z,6.47
2019-05-06T22:42:52.777Z,6.27
2019-05-06T22:47:54.809Z,6.47
2019-05-06T22:52:56.500Z,5.93
2019-05-06T22:57:58.262Z,5.53
2019-05-06T23:03:06.845Z,6.33
2019-05-06T23:08:08.533Z,5.27
2019-05-06T23:13:12.453Z,5.90
2019-05-06T23:18:15.686Z,5.70
2019-05-06T23:23:22.282Z,6.20
2019-05-06T23:28:23.763Z,6.30
2019-05-06T23:33:25.537Z,6.83
2019-05-06T23:38:45.393Z,7.40
2019-05-06T23:44:05.480Z,8.33
2019-05-06T23:49:25.613Z,7.43
2019-05-06T23:54:45.505Z,7.73
2019-05-06T23:59:47.197Z,8.17
